Time;durP1;ratioP1;P1;durP2;ratioP2;P2;SDS_P1;SDS_P2;PMS_P1;PMS_P2;Temp;Humidity;BMP_temperature;BMP_pressure;BME280_temperature;BME280_humidity;BME280_pressure;Samples;Min_cycle;Max_cycle;Signal;HPM_P1;HPM_P2
2022/04/05 00:01:52;;;;;;;11.17;4.00;;;;;;;;;;5097765;28;20448;-71
2022/04/05 00:04:19;;;;;;;18.60;12.40;;;;;;;;;;5097862;28;20451;-72
2022/04/05 00:06:46;;;;;;;5.03;2.83;;;;;;;;;;5097499;28;21157;-72
2022/04/05 00:09:20;;;;;;;13.27;12.47;;;;;;;;;;5097441;28;20727;-71
2022/04/05 00:11:47;;;;;;;10.03;9.40;;;;;;;;;;5097604;28;20451;-71
2022/04/05 00:14:15;;;;;;;11.80;5.43;;;;;;;;;;5097622;28;20550;-73
2022/04/05 00:16:43;;;;;;;10.80;9.90;;;;;;;;;;5110593;27;20777;-73
2022/04/05 00:19:10;;;;;;;9.80;3.30;;;;;;;;;;5117574;27;20488;-73
2022/04/05 00:21:37;;;;;;;12.97;11.73;;;;;;;;;;5116788;27;20462;-71
2022/04/05 00:24:04;;;;;;;10.67;7.77;;;;;;;;;;5117047;27;20467;-71
2022/04/05 00:26:31;;;;;;;16.87;15.57;;;;;;;;;;5117418;27;20478;-71
2022/04/05 00:28:58;;;;;;;6.10;2.00;;;;;;;;;;5117669;27;20463;-71
2022/04/05 00:31:26;;;;;;;5.00;1.90;;;;;;;;;;5116840;27;20443;-72
2022/04/05 00:33:53;;;;;;;9.20;2.93;;;;;;;;;;5117411;27;20454;-71
2022/04/05 00:36:20;;;;;;;7.20;2.37;;;;;;;;;;5117466;27;20894;-71
2022/04/05 00:38:47;;;;;;;6.10;5.50;;;;;;;;;;5117312;27;20522;-71
2022/04/05 00:41:14;;;;;;;6.90;2.93;;;;;;;;;;5117125;27;20474;-72
2022/04/05 00:43:41;;;;;;;7.23;2.70;;;;;;;;;;5117287;27;20550;-72
2022/04/05 00:46:08;;;;;;;6.50;2.20;;;;;;;;;;5117636;27;20987;-72
2022/04/05 00:48:41;;;;;;;3.87;1.60;;;;;;;;;;5117029;27;20462;-72
2022/04/05 00:51:08;;;;;;;9.20;2.97;;;;;;;;;;5117224;27;20503;-72
2022/04/05 00:53:36;;;;;;;9.00;4.70;;;;;;;;;;5108014;27;20451;-72
2022/04/05 00:56:05;;;;;;;5.27;3.87;;;;;;;;;;5097261;28;20793;-72
2022/04/05 00:58:33;;;;;;;10.70;2.20;;;;;;;;;;5103997;27;20494;-72
2022/04/05 01:01:00;;;;;;;4.87;1.73;;;;;;;;;;5096589;28;20751;-73
2022/04/05 01:03:41;;;;;;;11.07;3.23;;;;;;;;;;5095980;28;20566;-71
2022/04/05 01:06:09;;;;;;;12.53;3.30;;;;;;;;;;5096940;28;20451;-72
2022/04/05 01:08:37;;;;;;;4.27;2.90;;;;;;;;;;5095727;28;20452;-72
2022/04/05 01:11:04;;;;;;;12.10;3.20;;;;;;;;;;5096322;28;20455;-72
2022/04/05 01:13:32;;;;;;;8.67;2.70;;;;;;;;;;5095917;28;20452;-72
2022/04/05 01:15:59;;;;;;;7.90;2.50;;;;;;;;;;5104073;27;20529;-72
2022/04/05 01:18:26;;;;;;;12.00;5.20;;;;;;;;;;5114858;27;20534;-72
2022/04/05 01:20:56;;;;;;;12.63;3.37;;;;;;;;;;5116786;27;20511;-73
2022/04/05 01:23:24;;;;;;;8.27;3.07;;;;;;;;;;5116041;27;20516;-72
2022/04/05 01:25:52;;;;;;;20.93;19.37;;;;;;;;;;5116153;27;20455;-72
2022/04/05 01:28:19;;;;;;;12.07;10.00;;;;;;;;;;5115736;27;20474;-72
2022/04/05 01:30:49;;;;;;;18.83;17.13;;;;;;;;;;5116324;27;20471;-72
2022/04/05 01:33:16;;;;;;;22.50;20.83;;;;;;;;;;5116478;27;20894;-72
2022/04/05 01:35:43;;;;;;;31.00;28.47;;;;;;;;;;5116354;27;20447;-72
2022/04/05 01:38:11;;;;;;;22.40;19.20;;;;;;;;;;5116124;27;20721;-72
2022/04/05 01:40:38;;;;;;;23.67;21.20;;;;;;;;;;5115733;27;20855;-72
2022/04/05 01:43:06;;;;;;;22.20;20.60;;;;;;;;;;5116811;27;20850;-72
2022/04/05 01:45:34;;;;;;;30.47;28.10;;;;;;;;;;5115800;27;20480;-72
2022/04/05 01:48:01;;;;;;;22.23;20.30;;;;;;;;;;5116723;27;20462;-72
2022/04/05 01:50:28;;;;;;;31.27;28.73;;;;;;;;;;5116028;27;20964;-72
2022/04/05 01:52:55;;;;;;;33.93;30.20;;;;;;;;;;5116151;27;20454;-72
2022/04/05 01:55:22;;;;;;;35.57;31.87;;;;;;;;;;5116725;27;20499;-72
2022/04/05 01:57:49;;;;;;;31.77;29.00;;;;;;;;;;5116859;27;20518;-72
2022/04/05 02:00:17;;;;;;;38.00;34.60;;;;;;;;;;5118048;27;20449;-73
2022/04/05 02:02:45;;;;;;;41.23;36.90;;;;;;;;;;5119560;27;20469;-73
2022/04/05 02:05:12;;;;;;;31.90;28.40;;;;;;;;;;5119717;27;20880;-73
2022/04/05 02:07:39;;;;;;;18.80;17.57;;;;;;;;;;5119962;27;20550;-72
2022/04/05 02:10:06;;;;;;;20.63;18.87;;;;;;;;;;5119540;27;20945;-72
2022/04/05 02:12:35;;;;;;;26.13;24.30;;;;;;;;;;5119789;27;20482;-72
2022/04/05 02:15:02;;;;;;;34.63;31.53;;;;;;;;;;5119439;27;20882;-72
2022/04/05 02:17:30;;;;;;;14.73;13.60;;;;;;;;;;5119115;27;20519;-72
2022/04/05 02:19:57;;;;;;;23.33;21.70;;;;;;;;;;5119024;27;20461;-72
2022/04/05 02:22:24;;;;;;;26.27;24.40;;;;;;;;;;5119766;27;20451;-72
2022/04/05 02:24:52;;;;;;;21.50;18.93;;;;;;;;;;5119806;27;20450;-72
2022/04/05 02:27:24;;;;;;;31.67;28.97;;;;;;;;;;5118874;27;20456;-72
2022/04/05 02:29:56;;;;;;;19.43;18.23;;;;;;;;;;5118177;27;20439;-73
2022/04/05 02:32:31;;;;;;;6.10;5.43;;;;;;;;;;5119256;27;20450;-73
2022/04/05 02:34:58;;;;;;;13.47;12.17;;;;;;;;;;5119064;27;20507;-72
2022/04/05 02:37:25;;;;;;;20.53;19.03;;;;;;;;;;5119166;27;20462;-73
2022/04/05 02:39:53;;;;;;;16.37;15.43;;;;;;;;;;5119947;27;21004;-73
2022/04/05 02:42:20;;;;;;;13.63;12.63;;;;;;;;;;5119441;27;20461;-72
2022/04/05 02:44:47;;;;;;;30.40;27.80;;;;;;;;;;5119219;27;20783;-72
2022/04/05 02:47:15;;;;;;;25.40;23.07;;;;;;;;;;5118887;27;20937;-73
2022/04/05 02:49:42;;;;;;;19.60;18.40;;;;;;;;;;5120162;27;20443;-72
2022/04/05 02:52:10;;;;;;;20.30;18.90;;;;;;;;;;5118629;27;20896;-72
2022/04/05 02:54:37;;;;;;;24.10;22.50;;;;;;;;;;5118386;27;20469;-72
2022/04/05 02:57:04;;;;;;;15.07;13.87;;;;;;;;;;5118732;27;20466;-72
2022/04/05 02:59:31;;;;;;;11.17;10.50;;;;;;;;;;5118869;27;20494;-72
2022/04/05 03:01:59;;;;;;;11.90;10.30;;;;;;;;;;5118356;27;20451;-71
2022/04/05 03:04:26;;;;;;;14.10;12.70;;;;;;;;;;5117574;27;20443;-73
2022/04/05 03:06:53;;;;;;;4.00;1.93;;;;;;;;;;5117582;27;20442;-73
2022/04/05 03:09:21;;;;;;;26.17;24.27;;;;;;;;;;5117865;27;20532;-71
2022/04/05 03:11:49;;;;;;;26.77;24.63;;;;;;;;;;5117569;27;20451;-72
2022/04/05 03:14:16;;;;;;;28.60;26.30;;;;;;;;;;5118350;27;20575;-72
2022/04/05 03:16:43;;;;;;;28.13;25.57;;;;;;;;;;5118945;27;20482;-72
2022/04/05 03:19:10;;;;;;;30.77;28.47;;;;;;;;;;5118723;27;20976;-72
2022/04/05 03:21:37;;;;;;;19.27;17.47;;;;;;;;;;5117501;27;20446;-72
2022/04/05 03:24:04;;;;;;;24.37;22.30;;;;;;;;;;5118865;27;20937;-72
2022/04/05 03:26:32;;;;;;;39.00;34.97;;;;;;;;;;5117651;27;20890;-72
2022/04/05 03:28:59;;;;;;;27.87;25.27;;;;;;;;;;5118174;27;20747;-72
2022/04/05 03:31:26;;;;;;;9.33;5.37;;;;;;;;;;5118701;27;20746;-72
2022/04/05 03:33:53;;;;;;;24.57;22.77;;;;;;;;;;5118394;27;20461;-72
2022/04/05 03:36:21;;;;;;;18.37;17.30;;;;;;;;;;5117510;27;20715;-73
2022/04/05 03:38:51;;;;;;;39.43;35.43;;;;;;;;;;5116954;27;20566;-73
2022/04/05 03:41:18;;;;;;;17.67;16.60;;;;;;;;;;5116750;27;20527;-72
2022/04/05 03:43:46;;;;;;;20.80;19.20;;;;;;;;;;5115874;27;20742;-72
2022/04/05 03:46:13;;;;;;;10.13;9.50;;;;;;;;;;5117355;27;20453;-72
2022/04/05 03:48:40;;;;;;;6.07;4.30;;;;;;;;;;5117931;27;20553;-72
2022/04/05 03:51:10;;;;;;;17.17;15.87;;;;;;;;;;5118240;27;20457;-72
2022/04/05 03:53:37;;;;;;;20.10;18.80;;;;;;;;;;5117623;27;20454;-72
2022/04/05 03:56:04;;;;;;;15.30;14.00;;;;;;;;;;5115639;27;20451;-71
2022/04/05 03:58:33;;;;;;;10.40;9.83;;;;;;;;;;5097721;28;20578;-72
2022/04/05 04:01:00;;;;;;;20.40;18.97;;;;;;;;;;5108827;28;20446;-71
2022/04/05 04:03:28;;;;;;;20.93;19.77;;;;;;;;;;5117725;27;20864;-71
2022/04/05 04:05:55;;;;;;;24.13;22.23;;;;;;;;;;5117213;27;20455;-71
2022/04/05 04:08:22;;;;;;;9.80;9.07;;;;;;;;;;5117741;27;20455;-71
2022/04/05 04:10:49;;;;;;;18.33;17.07;;;;;;;;;;5117797;27;20482;-71
2022/04/05 04:13:17;;;;;;;10.67;9.87;;;;;;;;;;5117233;27;20506;-71
2022/04/05 04:15:44;;;;;;;35.70;32.10;;;;;;;;;;5116889;27;20541;-71
2022/04/05 04:18:12;;;;;;;15.30;14.37;;;;;;;;;;5117077;27;20839;-72
2022/04/05 04:20:44;;;;;;;16.53;15.43;;;;;;;;;;5116194;27;20473;-72
2022/04/05 04:23:11;;;;;;;34.03;30.90;;;;;;;;;;5116325;27;20534;-72
2022/04/05 04:25:38;;;;;;;27.00;25.00;;;;;;;;;;5117100;27;20808;-72
2022/04/05 04:28:06;;;;;;;33.03;29.67;;;;;;;;;;5116526;27;20783;-72
2022/04/05 04:30:33;;;;;;;23.30;21.27;;;;;;;;;;5116094;27;20455;-72
2022/04/05 04:33:01;;;;;;;27.00;24.77;;;;;;;;;;5115914;27;20496;-72
2022/04/05 04:35:31;;;;;;;21.77;19.67;;;;;;;;;;5116910;27;20541;-72
2022/04/05 04:38:01;;;;;;;14.70;13.70;;;;;;;;;;5116110;27;20585;-72
2022/04/05 04:40:30;;;;;;;14.20;13.43;;;;;;;;;;5116686;27;20513;-72
2022/04/05 04:42:57;;;;;;;16.03;15.13;;;;;;;;;;5116183;27;20451;-72
2022/04/05 04:45:26;;;;;;;17.03;16.13;;;;;;;;;;5116688;27;20692;-72
2022/04/05 04:47:53;;;;;;;17.00;15.80;;;;;;;;;;5116754;27;20450;-72
2022/04/05 04:50:20;;;;;;;18.23;16.73;;;;;;;;;;5116150;27;20465;-72
2022/04/05 04:52:48;;;;;;;13.30;12.33;;;;;;;;;;5115988;27;20454;-72
2022/04/05 04:55:15;;;;;;;8.50;7.90;;;;;;;;;;5116888;27;20524;-72
2022/04/05 04:57:42;;;;;;;13.70;12.60;;;;;;;;;;5116623;27;20451;-72
2022/04/05 05:00:11;;;;;;;27.03;25.23;;;;;;;;;;5117080;27;20534;-72
2022/04/05 05:02:47;;;;;;;23.60;21.63;;;;;;;;;;5115837;27;20443;-72
2022/04/05 05:05:17;;;;;;;9.17;4.33;;;;;;;;;;5116286;27;20458;-72
2022/04/05 05:07:45;;;;;;;8.83;4.63;;;;;;;;;;5115940;27;20521;-72
2022/04/05 05:10:14;;;;;;;6.20;3.80;;;;;;;;;;5116079;27;20904;-72
2022/04/05 05:12:41;;;;;;;9.40;2.70;;;;;;;;;;5115941;27;20491;-72
2022/04/05 05:15:09;;;;;;;5.00;3.27;;;;;;;;;;5115548;27;20470;-72
2022/04/05 05:17:36;;;;;;;9.30;3.30;;;;;;;;;;5115519;27;20486;-72
2022/04/05 05:20:03;;;;;;;2.57;2.37;;;;;;;;;;5116121;27;20771;-72
2022/04/05 05:22:30;;;;;;;2.60;2.27;;;;;;;;;;5115358;27;20811;-72
2022/04/05 05:25:01;;;;;;;3.90;1.73;;;;;;;;;;5116122;27;20475;-72
2022/04/05 05:27:32;;;;;;;9.87;3.80;;;;;;;;;;5095585;28;20477;-73
2022/04/05 05:30:00;;;;;;;8.27;7.57;;;;;;;;;;5096501;28;20448;-73
2022/04/05 05:32:30;;;;;;;6.53;4.80;;;;;;;;;;5112401;27;20798;-73
2022/04/05 05:34:58;;;;;;;10.73;8.20;;;;;;;;;;5117857;27;20534;-71
2022/04/05 05:37:25;;;;;;;9.83;5.27;;;;;;;;;;5117316;27;20562;-71
2022/04/05 05:39:54;;;;;;;6.83;6.33;;;;;;;;;;5117273;27;20506;-71
2022/04/05 05:42:22;;;;;;;22.83;21.27;;;;;;;;;;5117795;27;20930;-71
2022/04/05 05:44:57;;;;;;;13.87;12.93;;;;;;;;;;5118132;27;20550;-71
2022/04/05 05:47:24;;;;;;;17.70;10.87;;;;;;;;;;5117597;27;20489;-72
2022/04/05 05:49:53;;;;;;;15.97;14.80;;;;;;;;;;5119665;27;20435;-71
2022/04/05 05:52:31;;;;;;;16.67;15.70;;;;;;;;;;5137773;27;20537;-71
2022/04/05 05:54:58;;;;;;;12.10;11.30;;;;;;;;;;5134691;27;20456;-71
2022/04/05 05:57:25;;;;;;;7.07;4.23;;;;;;;;;;5119127;27;20512;-72
2022/04/05 05:59:53;;;;;;;15.27;14.03;;;;;;;;;;5117727;27;20486;-71
2022/04/05 06:02:20;;;;;;;6.57;5.83;;;;;;;;;;5115931;27;20471;-72
2022/04/05 06:04:54;;;;;;;10.60;8.77;;;;;;;;;;5117180;27;20540;-71
2022/04/05 06:07:26;;;;;;;4.00;2.10;;;;;;;;;;5118223;27;20451;-72
2022/04/05 06:10:03;;;;;;;10.20;7.63;;;;;;;;;;5118534;27;21043;-72
2022/04/05 06:12:30;;;;;;;9.70;8.20;;;;;;;;;;5118225;27;20464;-71
2022/04/05 06:15:04;;;;;;;11.17;10.20;;;;;;;;;;5118118;27;20889;-71
2022/04/05 06:17:38;;;;;;;26.90;24.70;;;;;;;;;;5118372;27;20462;-73
2022/04/05 06:20:07;;;;;;;25.17;23.33;;;;;;;;;;5118197;27;20565;-70
2022/04/05 06:22:42;;;;;;;18.50;16.43;;;;;;;;;;5117847;27;20806;-72
2022/04/05 06:25:09;;;;;;;20.10;18.73;;;;;;;;;;5117851;27;20858;-72
2022/04/05 06:27:38;;;;;;;17.30;16.23;;;;;;;;;;5117131;27;20454;-72
2022/04/05 06:30:07;;;;;;;24.00;22.17;;;;;;;;;;5117370;27;20778;-71
2022/04/05 06:32:34;;;;;;;16.23;14.73;;;;;;;;;;5116912;27;20458;-73
2022/04/05 06:35:07;;;;;;;27.97;26.13;;;;;;;;;;5117006;27;20463;-72
2022/04/05 06:37:43;;;;;;;16.60;15.47;;;;;;;;;;5117376;27;20469;-72
2022/04/05 06:40:18;;;;;;;24.37;22.77;;;;;;;;;;5117243;27;20557;-72
2022/04/05 06:42:49;;;;;;;32.30;29.73;;;;;;;;;;5116602;27;20454;-72
2022/04/05 06:45:22;;;;;;;21.73;20.47;;;;;;;;;;5117552;27;20454;-72
2022/04/05 06:47:49;;;;;;;34.07;31.37;;;;;;;;;;5117719;27;20972;-71
2022/04/05 06:50:20;;;;;;;7.03;5.97;;;;;;;;;;5117015;27;20863;-71
2022/04/05 06:52:49;;;;;;;11.40;6.17;;;;;;;;;;5118133;27;20538;-71
2022/04/05 06:55:16;;;;;;;14.70;11.40;;;;;;;;;;5117433;27;20526;-72
2022/04/05 06:57:43;;;;;;;11.53;7.23;;;;;;;;;;5117201;27;20459;-71
2022/04/05 07:00:13;;;;;;;21.80;20.37;;;;;;;;;;5116841;27;20486;-72
2022/04/05 07:02:42;;;;;;;27.87;25.97;;;;;;;;;;5116137;27;20454;-71
2022/04/05 07:05:17;;;;;;;27.37;25.67;;;;;;;;;;5113602;27;20482;-72
2022/04/05 07:07:45;;;;;;;46.37;41.77;;;;;;;;;;5117462;27;20726;-71
2022/04/05 07:10:29;;;;;;;16.17;15.30;;;;;;;;;;5117383;27;20443;-71
2022/04/05 07:12:56;;;;;;;31.47;29.13;;;;;;;;;;5118374;27;20493;-71
2022/04/05 07:15:25;;;;;;;42.17;37.83;;;;;;;;;;5116285;27;20528;-71
2022/04/05 07:17:53;;;;;;;43.20;38.90;;;;;;;;;;5097500;28;21055;-72
2022/04/05 07:20:29;;;;;;;30.17;28.13;;;;;;;;;;5105671;27;20523;-70
2022/04/05 07:22:56;;;;;;;37.93;34.83;;;;;;;;;;5128285;27;20445;-71
2022/04/05 07:25:24;;;;;;;47.90;41.70;;;;;;;;;;5120447;27;20451;-71
2022/04/05 07:27:53;;;;;;;40.93;37.30;;;;;;;;;;5116651;27;20469;-72
2022/04/05 07:30:20;;;;;;;12.87;10.27;;;;;;;;;;5117745;27;20447;-74
2022/04/05 07:32:48;;;;;;;11.03;9.37;;;;;;;;;;5117506;27;20458;-72
2022/04/05 07:35:18;;;;;;;18.23;17.23;;;;;;;;;;5117625;27;20478;-72
2022/04/05 07:37:47;;;;;;;6.83;6.23;;;;;;;;;;5100937;27;20463;-72
2022/04/05 07:40:16;;;;;;;9.67;8.87;;;;;;;;;;5117440;27;20571;-71
2022/04/05 07:42:47;;;;;;;8.17;7.10;;;;;;;;;;5116700;27;20565;-70
2022/04/05 07:45:15;;;;;;;4.30;2.67;;;;;;;;;;5117102;27;20449;-71
2022/04/05 07:47:43;;;;;;;7.10;4.83;;;;;;;;;;5116529;27;20454;-72
2022/04/05 07:50:10;;;;;;;5.17;3.23;;;;;;;;;;5115363;27;20455;-72
2022/04/05 07:52:38;;;;;;;10.03;7.20;;;;;;;;;;5114844;27;21012;-72
2022/04/05 07:55:06;;;;;;;24.10;22.03;;;;;;;;;;5116703;27;20602;-71
2022/04/05 07:57:36;;;;;;;15.57;14.23;;;;;;;;;;5114876;27;20546;-72
2022/04/05 08:00:04;;;;;;;24.60;22.70;;;;;;;;;;5128638;27;20472;-73
2022/04/05 08:02:35;;;;;;;13.43;12.43;;;;;;;;;;5109021;27;20451;-73
2022/04/05 08:05:19;;;;;;;15.03;13.70;;;;;;;;;;5117046;27;20528;-72
2022/04/05 08:07:55;;;;;;;9.93;8.77;;;;;;;;;;5104192;27;20759;-73
2022/04/05 08:10:23;;;;;;;38.53;35.37;;;;;;;;;;5116058;27;20450;-71
2022/04/05 08:13:10;;;;;;;14.33;12.83;;;;;;;;;;5122094;27;20455;-71
2022/04/05 08:15:49;;;;;;;18.07;16.53;;;;;;;;;;5117976;27;20478;-71
2022/04/05 08:18:21;;;;;;;7.57;5.53;;;;;;;;;;5117625;27;20482;-73
2022/04/05 08:20:49;;;;;;;19.10;17.73;;;;;;;;;;5108985;27;20454;-72
2022/04/05 08:23:18;;;;;;;7.40;4.50;;;;;;;;;;5115803;27;20866;-72
2022/04/05 08:25:47;;;;;;;6.07;4.60;;;;;;;;;;5115072;27;20454;-72
2022/04/05 08:28:14;;;;;;;7.87;7.30;;;;;;;;;;5115216;27;20455;-72
2022/04/05 08:30:41;;;;;;;8.63;4.37;;;;;;;;;;5117778;27;20520;-72
2022/04/05 08:33:15;;;;;;;7.07;4.93;;;;;;;;;;5135919;27;20774;-72
2022/04/05 08:35:50;;;;;;;19.83;18.73;;;;;;;;;;5135157;27;20461;-72
2022/04/05 08:38:20;;;;;;;15.60;14.43;;;;;;;;;;5113766;27;20726;-72
2022/04/05 08:40:50;;;;;;;28.17;26.47;;;;;;;;;;5113686;27;21032;-72
2022/04/05 08:43:17;;;;;;;52.60;48.33;;;;;;;;;;5114285;27;20485;-72
2022/04/05 08:48:33;;;;;;;35.87;32.50;;;;;;;;;;5104103;27;20870;-72
2022/04/05 08:51:03;;;;;;;27.10;25.50;;;;;;;;;;5113511;27;20451;-72
2022/04/05 08:53:33;;;;;;;5.77;3.77;;;;;;;;;;5114127;27;20458;-72
2022/04/05 08:56:01;;;;;;;7.80;7.10;;;;;;;;;;5113804;27;20454;-72
2022/04/05 08:58:29;;;;;;;11.70;10.77;;;;;;;;;;5112936;27;20489;-73
2022/04/05 09:00:59;;;;;;;31.43;29.63;;;;;;;;;;5108129;27;20515;-72
2022/04/05 09:03:48;;;;;;;7.90;6.87;;;;;;;;;;5114991;27;20447;-71
2022/04/05 09:06:31;;;;;;;27.67;26.17;;;;;;;;;;5097701;28;20459;-72
2022/04/05 09:08:59;;;;;;;24.27;22.73;;;;;;;;;;5094565;28;20459;-72
2022/04/05 09:11:33;;;;;;;29.17;27.27;;;;;;;;;;5094198;28;20535;-72
2022/04/05 09:17:10;;;;;;;22.13;20.63;;;;;;;;;;5113453;27;20830;-71
2022/04/05 09:19:45;;;;;;;16.67;15.27;;;;;;;;;;5110117;27;20486;-70
2022/04/05 09:25:03;;;;;;;26.20;24.33;;;;;;;;;;5093444;28;20482;-71
2022/04/05 09:27:43;;;;;;;31.33;29.23;;;;;;;;;;5093651;28;20887;-71
2022/04/05 09:30:12;;;;;;;27.93;26.23;;;;;;;;;;5093280;28;20475;-71
2022/04/05 09:32:42;;;;;;;28.00;26.23;;;;;;;;;;5096361;28;20443;-70
2022/04/05 09:35:10;;;;;;;25.40;24.10;;;;;;;;;;5096439;28;20448;-71
2022/04/05 09:37:38;;;;;;;27.43;25.83;;;;;;;;;;5095349;28;20463;-70
2022/04/05 09:40:23;;;;;;;20.20;18.97;;;;;;;;;;5091718;28;20536;-70
2022/04/05 09:43:01;;;;;;;34.40;31.40;;;;;;;;;;5082334;28;20548;-71
2022/04/05 09:45:58;;;;;;;17.40;16.40;;;;;;;;;;5091923;28;20796;-71
2022/04/05 09:48:27;;;;;;;18.67;17.07;;;;;;;;;;5088350;28;20463;-71
2022/04/05 09:50:58;;;;;;;7.40;6.70;;;;;;;;;;5093809;28;20801;-71
2022/04/05 09:53:25;;;;;;;11.03;6.73;;;;;;;;;;5092314;28;20977;-70
2022/04/05 09:56:04;;;;;;;10.00;7.07;;;;;;;;;;5092281;28;20443;-71
2022/04/05 09:58:40;;;;;;;11.70;5.77;;;;;;;;;;5092599;28;20495;-71
2022/04/05 10:01:15;;;;;;;8.23;7.10;;;;;;;;;;5087380;28;21117;-71
2022/04/05 10:03:49;;;;;;;35.50;33.17;;;;;;;;;;5085055;28;20451;-71
2022/04/05 10:06:18;;;;;;;18.53;17.23;;;;;;;;;;5093450;28;21125;-71
2022/04/05 10:12:00;;;;;;;38.93;35.50;;;;;;;;;;5082083;28;20759;-71
2022/04/05 10:14:51;;;;;;;38.37;35.80;;;;;;;;;;5091801;28;20451;-72
2022/04/05 10:17:22;;;;;;;36.63;34.40;;;;;;;;;;5093331;28;20547;-71
2022/04/05 10:19:50;;;;;;;37.47;35.07;;;;;;;;;;5092585;28;20697;-71
2022/04/05 10:22:22;;;;;;;38.37;35.70;;;;;;;;;;5095579;28;20454;-71
2022/04/05 10:24:51;;;;;;;25.70;24.03;;;;;;;;;;5089021;28;20448;-73
2022/04/05 10:27:25;;;;;;;41.63;38.50;;;;;;;;;;5096059;28;20455;-71
2022/04/05 10:29:57;;;;;;;20.77;19.07;;;;;;;;;;5095989;28;20455;-72
2022/04/05 10:32:28;;;;;;;38.53;35.93;;;;;;;;;;5079894;28;20463;-74
2022/04/05 10:35:06;;;;;;;39.83;37.03;;;;;;;;;;5094887;28;20466;-72
2022/04/05 10:37:35;;;;;;;60.17;55.47;;;;;;;;;;5094982;28;20715;-71
2022/04/05 10:40:15;;;;;;;24.60;22.77;;;;;;;;;;5096776;28;20517;-71
2022/04/05 10:43:09;;;;;;;23.83;22.20;;;;;;;;;;5095539;28;20516;-72
2022/04/05 10:45:45;;;;;;;27.87;26.00;;;;;;;;;;5090191;28;20474;-71
2022/04/05 10:48:28;;;;;;;29.60;27.73;;;;;;;;;;5096259;28;20472;-71
2022/04/05 10:51:12;;;;;;;33.23;31.33;;;;;;;;;;5096200;28;20443;-72
2022/04/05 10:53:42;;;;;;;18.47;16.73;;;;;;;;;;5095952;28;20601;-71
2022/04/05 10:56:27;;;;;;;8.57;6.50;;;;;;;;;;5095462;28;20458;-71
2022/04/05 10:59:28;;;;;;;9.00;8.10;;;;;;;;;;5095710;28;20929;-71
2022/04/05 11:02:28;;;;;;;7.73;5.17;;;;;;;;;;4979004;28;20457;-71
2022/04/05 11:05:09;;;;;;;15.47;14.30;;;;;;;;;;4967740;28;20613;-73
2022/04/05 11:08:09;;;;;;;12.23;11.23;;;;;;;;;;5048561;28;21071;-73
2022/04/05 11:10:56;;;;;;;9.20;8.30;;;;;;;;;;5044396;28;20459;-72
2022/04/05 11:13:34;;;;;;;7.70;6.87;;;;;;;;;;5091599;28;20531;-71
2022/04/05 11:16:02;;;;;;;32.20;30.17;;;;;;;;;;5076668;28;20460;-71
2022/04/05 11:18:36;;;;;;;31.93;30.07;;;;;;;;;;5079366;28;20938;-70
2022/04/05 11:21:06;;;;;;;29.87;28.27;;;;;;;;;;5095416;28;20456;-72
2022/04/05 11:23:50;;;;;;;39.43;37.03;;;;;;;;;;5094122;28;20460;-72
2022/04/05 11:26:35;;;;;;;29.67;27.97;;;;;;;;;;5075599;28;20488;-72
2022/04/05 11:29:19;;;;;;;11.20;9.50;;;;;;;;;;5075435;28;20456;-71
2022/04/05 11:31:53;;;;;;;5.97;4.20;;;;;;;;;;5082955;28;20541;-72
2022/04/05 11:34:37;;;;;;;8.40;7.70;;;;;;;;;;5095914;28;20442;-73
2022/04/05 11:37:07;;;;;;;57.97;52.77;;;;;;;;;;5095384;28;20871;-72
2022/04/05 11:39:41;;;;;;;15.33;14.43;;;;;;;;;;5094891;28;20494;-72
2022/04/05 11:42:08;;;;;;;23.33;21.63;;;;;;;;;;5095900;28;20450;-72
2022/04/05 11:44:35;;;;;;;19.17;17.87;;;;;;;;;;5095543;28;20468;-72
2022/04/05 11:47:03;;;;;;;9.87;9.00;;;;;;;;;;5092620;28;20456;-72
2022/04/05 11:49:42;;;;;;;13.87;12.77;;;;;;;;;;5075746;28;21088;-72
2022/04/05 11:52:10;;;;;;;21.20;19.80;;;;;;;;;;5083486;28;20460;-71
2022/04/05 11:56:00;;;;;;;22.60;21.03;;;;;;;;;;5094768;28;20450;-71
2022/04/05 11:57:27;;;;;;;18.80;17.57;;;;;;;;;;5084853;28;20816;-73
2022/04/05 12:00:28;;;;;;;18.60;17.47;;;;;;;;;;5094544;28;20483;-72
2022/04/05 12:03:17;;;;;;;13.03;12.13;;;;;;;;;;5095150;28;20870;-72
2022/04/05 12:05:45;;;;;;;25.40;23.60;;;;;;;;;;5088441;28;20452;-73
2022/04/05 12:08:13;;;;;;;25.40;24.00;;;;;;;;;;5084785;28;20881;-72
2022/04/05 12:10:46;;;;;;;42.83;39.87;;;;;;;;;;5084114;28;20463;-72
2022/04/05 12:13:13;;;;;;;8.97;7.60;;;;;;;;;;5075238;28;20556;-72
2022/04/05 12:15:43;;;;;;;6.33;5.70;;;;;;;;;;5074550;28;20460;-71
2022/04/05 12:18:23;;;;;;;10.37;7.27;;;;;;;;;;5087056;28;20505;-71
2022/04/05 12:20:58;;;;;;;14.27;9.77;;;;;;;;;;5074227;28;20444;-71
2022/04/05 12:23:30;;;;;;;7.30;6.60;;;;;;;;;;5085289;28;20520;-72
2022/04/05 12:26:13;;;;;;;13.67;7.27;;;;;;;;;;5114930;27;20921;-71
2022/04/05 12:28:45;;;;;;;12.50;11.50;;;;;;;;;;5100089;28;20884;-71
2022/04/05 12:31:15;;;;;;;11.70;10.80;;;;;;;;;;5094335;28;20459;-70
2022/04/05 12:33:43;;;;;;;67.70;61.20;;;;;;;;;;5094050;28;20443;-71
2022/04/05 12:36:11;;;;;;;8.37;7.20;;;;;;;;;;5095010;28;20588;-71
2022/04/05 12:38:41;;;;;;;11.50;10.60;;;;;;;;;;5093723;28;20487;-71
2022/04/05 12:41:14;;;;;;;60.83;55.00;;;;;;;;;;5097489;28;20456;-72
2022/04/05 12:43:41;;;;;;;61.37;55.90;;;;;;;;;;5092116;28;20471;-72
2022/04/05 12:46:16;;;;;;;56.60;51.03;;;;;;;;;;5095096;28;20477;-72
2022/04/05 12:48:43;;;;;;;66.43;59.83;;;;;;;;;;5093101;28;20787;-71
2022/04/05 12:51:31;;;;;;;44.40;40.60;;;;;;;;;;5094108;28;20497;-71
2022/04/05 12:53:58;;;;;;;53.67;48.37;;;;;;;;;;5094758;28;20771;-71
2022/04/05 12:56:30;;;;;;;12.23;11.37;;;;;;;;;;5095620;28;20710;-71
2022/04/05 12:59:05;;;;;;;50.87;46.73;;;;;;;;;;5098950;28;20587;-71
2022/04/05 13:01:37;;;;;;;5.27;4.83;;;;;;;;;;5113807;28;20559;-71
2022/04/05 13:04:09;;;;;;;6.10;5.50;;;;;;;;;;5114341;28;20639;-72
2022/04/05 13:06:36;;;;;;;7.73;4.10;;;;;;;;;;5114776;28;20438;-72
2022/04/05 13:09:14;;;;;;;10.83;9.90;;;;;;;;;;5114697;28;20675;-72
2022/04/05 13:11:44;;;;;;;7.27;4.17;;;;;;;;;;5114596;28;20454;-72
2022/04/05 13:14:14;;;;;;;6.30;5.30;;;;;;;;;;5114429;28;20457;-72
2022/04/05 13:16:43;;;;;;;6.07;5.30;;;;;;;;;;5103834;28;20847;-72
2022/04/05 13:19:11;;;;;;;9.27;5.97;;;;;;;;;;5097148;28;20614;-72
2022/04/05 13:21:43;;;;;;;9.17;7.73;;;;;;;;;;5091432;28;20444;-72
2022/04/05 13:24:10;;;;;;;8.03;7.27;;;;;;;;;;5107560;28;20446;-72
2022/04/05 13:26:44;;;;;;;8.57;7.73;;;;;;;;;;5114941;28;20450;-73
2022/04/05 13:29:18;;;;;;;28.57;26.87;;;;;;;;;;5115156;28;20848;-72
2022/04/05 13:31:49;;;;;;;9.20;8.37;;;;;;;;;;5099221;28;20559;-71
2022/04/05 13:34:19;;;;;;;6.10;1.77;;;;;;;;;;5074023;28;20457;-72
2022/04/05 13:36:50;;;;;;;4.50;4.07;;;;;;;;;;5074102;28;21016;-73
2022/04/05 13:39:21;;;;;;;7.30;5.17;;;;;;;;;;5089380;28;20487;-72
2022/04/05 13:41:49;;;;;;;8.10;7.33;;;;;;;;;;5093376;28;20528;-73
2022/04/05 13:44:16;;;;;;;7.13;6.63;;;;;;;;;;5074453;28;20499;-73
2022/04/05 13:46:43;;;;;;;10.70;9.90;;;;;;;;;;5074344;28;20444;-73
2022/04/05 13:49:17;;;;;;;16.57;15.30;;;;;;;;;;5077165;28;20503;-71
2022/04/05 13:51:46;;;;;;;11.50;10.60;;;;;;;;;;5093458;28;20965;-73
2022/04/05 13:54:16;;;;;;;19.83;18.23;;;;;;;;;;5092857;28;20572;-72
2022/04/05 13:56:44;;;;;;;9.53;8.63;;;;;;;;;;5087512;28;20461;-72
2022/04/05 13:59:11;;;;;;;5.93;5.40;;;;;;;;;;5077349;28;20557;-72
2022/04/05 14:01:59;;;;;;;9.27;8.10;;;;;;;;;;5076871;28;20452;-72
2022/04/05 14:04:26;;;;;;;9.63;5.03;;;;;;;;;;5078117;28;20448;-72
2022/04/05 14:06:53;;;;;;;6.30;4.43;;;;;;;;;;5092293;28;20451;-71
2022/04/05 14:09:28;;;;;;;9.20;8.30;;;;;;;;;;5098823;28;20454;-73
2022/04/05 14:15:04;;;;;;;9.27;7.50;;;;;;;;;;5059371;28;20455;-72
2022/04/05 14:17:37;;;;;;;12.83;11.53;;;;;;;;;;5092733;28;20467;-73
2022/04/05 14:20:05;;;;;;;20.73;19.30;;;;;;;;;;5077109;28;20486;-73
2022/04/05 14:22:32;;;;;;;15.87;14.90;;;;;;;;;;5098919;28;20458;-73
2022/04/05 14:25:04;;;;;;;16.00;15.00;;;;;;;;;;5099984;28;20474;-72
2022/04/05 14:27:32;;;;;;;6.70;6.10;;;;;;;;;;5096456;28;20456;-73
2022/04/05 14:30:01;;;;;;;14.93;13.83;;;;;;;;;;5099370;28;20467;-72
2022/04/05 14:32:33;;;;;;;16.90;15.80;;;;;;;;;;5108729;28;20462;-72
2022/04/05 14:35:12;;;;;;;14.30;13.30;;;;;;;;;;5096674;28;20443;-73
2022/04/05 14:37:41;;;;;;;18.97;17.73;;;;;;;;;;5093445;28;20753;-72
2022/04/05 14:40:09;;;;;;;10.73;9.90;;;;;;;;;;5095161;28;20487;-72
2022/04/05 14:42:37;;;;;;;18.93;17.77;;;;;;;;;;5093886;28;20533;-72
2022/04/05 14:45:11;;;;;;;18.43;16.93;;;;;;;;;;5096743;28;20482;-72
2022/04/05 14:47:39;;;;;;;27.73;26.20;;;;;;;;;;5096376;28;20603;-71
2022/04/05 14:50:16;;;;;;;35.57;33.33;;;;;;;;;;5095689;28;20438;-74
2022/04/05 14:52:52;;;;;;;38.10;35.50;;;;;;;;;;5092063;28;20542;-73
2022/04/05 14:55:26;;;;;;;35.70;33.47;;;;;;;;;;5096269;28;20492;-72
2022/04/05 14:57:53;;;;;;;49.47;45.30;;;;;;;;;;5096034;28;20455;-72
2022/04/05 15:00:29;;;;;;;48.97;45.17;;;;;;;;;;5094844;28;20931;-73
2022/04/05 15:02:56;;;;;;;58.30;53.10;;;;;;;;;;5096172;28;20852;-72